Time;durP1;ratioP1;P1;durP2;ratioP2;P2;SDS_P1;SDS_P2;PMS_P1;PMS_P2;Temp;Humidity;BMP_temperature;BMP_pressure;BME280_temperature;BME280_humidity;BME280_pressure;Samples;Min_cycle;Max_cycle;Signal;HPM_P1;HPM_P2
2022/06/07 00:00:16;;;;;;;25.77;23.20;;;;;;;17.91;76.60;98767.04;2209658;79;21323;-80
2022/06/07 00:03:16;;;;;;;26.37;23.73;;;;;;;17.88;77.31;98768.42;2209744;79;21028;-80
2022/06/07 00:06:16;;;;;;;28.35;25.50;;;;;;;17.85;77.35;98769.34;2209769;79;20881;-80
2022/06/07 00:09:17;;;;;;;24.20;21.90;;;;;;;17.82;77.72;98763.67;2209587;79;21300;-80
2022/06/07 00:12:17;;;;;;;22.70;20.75;;;;;;;17.75;77.27;98759.41;2209578;79;20925;-81
2022/06/07 00:15:18;;;;;;;23.57;19.67;;;;;;;17.67;77.31;98758.67;2209830;79;20951;-81
2022/06/07 00:18:18;;;;;;;18.98;17.20;;;;;;;17.54;77.50;98755.80;2219550;79;21397;-81
2022/06/07 00:21:18;;;;;;;20.62;18.65;;;;;;;17.40;77.85;98761.31;2237397;79;21023;-81
2022/06/07 00:24:19;;;;;;;23.55;21.05;;;;;;;17.33;78.40;98761.41;2237031;79;20920;-81
2022/06/07 00:27:19;;;;;;;23.00;20.60;;;;;;;17.33;79.13;98764.05;2236939;79;20924;-81
2022/06/07 00:30:20;;;;;;;26.20;23.30;;;;;;;17.32;79.83;98756.58;2236875;79;20923;-81
2022/06/07 00:33:20;;;;;;;22.62;20.43;;;;;;;17.35;80.36;98755.69;2236837;79;20979;-80
2022/06/07 00:36:20;;;;;;;22.30;19.90;;;;;;;17.34;80.03;98752.59;2237032;79;20991;-81
2022/06/07 00:39:21;;;;;;;22.82;20.70;;;;;;;17.32;79.78;98749.11;2236833;79;21440;-79
2022/06/07 00:42:21;;;;;;;24.47;20.90;;;;;;;17.27;79.79;98748.32;2236574;79;20897;-82
2022/06/07 00:45:22;;;;;;;23.35;21.10;;;;;;;17.23;79.67;98742.22;2236891;79;20951;-80
2022/06/07 00:48:22;;;;;;;24.80;22.20;;;;;;;17.20;80.25;98745.78;2236827;79;21291;-81
2022/06/07 00:51:23;;;;;;;23.47;21.15;;;;;;;17.20;81.20;98741.83;2236827;79;20967;-81
2022/06/07 00:54:23;;;;;;;23.15;20.95;;;;;;;17.17;81.54;98738.37;2237065;79;20908;-81
2022/06/07 00:57:23;;;;;;;23.15;20.77;;;;;;;17.13;81.67;98742.82;2237177;79;21008;-81
2022/06/07 01:00:24;;;;;;;24.05;21.82;;;;;;;17.11;81.90;98742.42;2236898;79;21334;-81
2022/06/07 01:03:24;;;;;;;24.60;22.07;;;;;;;17.10;82.23;98737.59;2236549;79;21003;-81
2022/06/07 01:13:02;;;;;;;25.92;22.10;;;;;;;17.15;82.15;98732.25;2236698;80;20967;-82
2022/06/07 01:16:03;;;;;;;24.82;22.40;;;;;;;17.13;81.89;98728.77;2236210;79;20981;-82
2022/06/07 01:19:03;;;;;;;23.02;20.48;;;;;;;17.13;81.95;98728.77;2236565;79;20972;-82
2022/06/07 01:22:04;;;;;;;23.45;21.17;;;;;;;17.09;81.83;98727.94;2236733;79;20880;-82
2022/06/07 01:25:04;;;;;;;22.82;20.65;;;;;;;17.02;81.84;98722.34;2236864;79;20921;-82
2022/06/07 01:28:04;;;;;;;23.62;21.20;;;;;;;16.90;81.78;98725.63;2236953;79;20924;-82
2022/06/07 01:31:05;;;;;;;24.90;22.40;;;;;;;16.77;82.00;98720.98;2236793;79;20913;-82
2022/06/07 01:34:05;;;;;;;25.20;22.60;;;;;;;16.71;82.35;98720.63;2236921;79;20971;-83
2022/06/07 01:37:06;;;;;;;22.75;20.12;;;;;;;16.66;82.69;98722.45;2236703;79;20979;-82
2022/06/07 01:43:25;;;;;;;152.27;28.32;;;;;;;16.48;82.78;98723.56;2236668;80;20943;-82
2022/06/07 01:46:25;;;;;;;24.55;22.07;;;;;;;16.42;83.03;98718.34;2236561;79;20963;-82
2022/06/07 01:49:26;;;;;;;24.60;22.30;;;;;;;16.33;83.03;98718.46;2234852;79;20982;-82
2022/06/07 01:52:26;;;;;;;23.85;21.45;;;;;;;16.24;83.12;98717.27;2236132;79;21347;-82
2022/06/07 01:55:26;;;;;;;25.40;22.82;;;;;;;16.20;83.01;98712.92;2236422;79;20939;-82
2022/06/07 01:58:27;;;;;;;25.40;23.07;;;;;;;16.16;82.78;98719.13;2236437;79;21066;-82
2022/06/07 02:01:27;;;;;;;30.17;23.92;;;;;;;16.08;83.21;98717.91;2236453;79;20963;-82
2022/06/07 02:04:31;;;;;;;24.25;21.85;;;;;;;16.00;83.25;98712.30;2236118;79;20979;-81
2022/06/07 02:07:31;;;;;;;24.12;20.70;;;;;;;15.93;83.46;98713.69;2236809;79;20955;-81
2022/06/07 02:10:31;;;;;;;23.62;20.88;;;;;;;15.83;83.57;98711.19;2236921;79;20978;-82
2022/06/07 02:13:32;;;;;;;23.77;21.20;;;;;;;15.77;83.61;98709.50;2236740;79;20991;-82
2022/06/07 02:16:32;;;;;;;23.73;21.00;;;;;;;15.77;83.84;98708.18;2236641;79;20924;-82
2022/06/07 02:19:33;;;;;;;24.12;21.12;;;;;;;15.74;83.96;98701.64;2235364;79;20995;-81
2022/06/07 02:22:33;;;;;;;25.50;18.17;;;;;;;15.69;83.62;98706.52;2236674;79;20944;-82
2022/06/07 02:25:35;;;;;;;17.45;15.85;;;;;;;15.63;83.08;98705.27;2236197;79;21018;-82
2022/06/07 02:28:34;;;;;;;22.90;20.27;;;;;;;15.62;83.08;98703.53;2235364;79;20916;-81
2022/06/07 02:31:34;;;;;;;86.47;24.20;;;;;;;15.64;84.20;98704.38;2235708;79;20947;-83
2022/06/07 02:34:35;;;;;;;22.15;19.95;;;;;;;15.66;84.84;98708.74;2236749;79;21019;-82
2022/06/07 02:37:35;;;;;;;71.87;23.92;;;;;;;15.68;84.43;98712.23;2236868;79;20904;-82
2022/06/07 02:40:35;;;;;;;25.72;23.07;;;;;;;15.66;84.29;98706.55;2236747;79;20881;-83
2022/06/07 02:43:36;;;;;;;25.97;23.25;;;;;;;15.65;84.41;98709.62;2236948;79;20916;-83
2022/06/07 02:46:36;;;;;;;418.90;58.38;;;;;;;15.67;84.80;98712.24;2237409;79;21333;-83
2022/06/07 02:49:37;;;;;;;26.25;22.25;;;;;;;15.70;85.11;98707.82;2237160;79;20948;-82
2022/06/07 02:52:37;;;;;;;25.82;23.18;;;;;;;15.69;84.56;98708.70;2237246;79;20916;-82
2022/06/07 02:55:38;;;;;;;23.77;21.27;;;;;;;15.63;84.35;98702.20;2237269;79;20923;-78
2022/06/07 02:58:38;;;;;;;23.25;20.95;;;;;;;15.61;84.37;98703.97;2237314;79;20951;-78
2022/06/07 03:01:38;;;;;;;22.80;19.25;;;;;;;15.64;84.38;98705.25;2237334;79;20955;-79
2022/06/07 03:04:39;;;;;;;20.40;18.32;;;;;;;15.63;84.15;98706.14;2237095;79;20920;-79
2022/06/07 03:07:39;;;;;;;34.30;22.95;;;;;;;15.63;84.30;98707.45;2237549;79;20946;-81
2022/06/07 03:10:40;;;;;;;58.60;23.73;;;;;;;15.68;84.57;98711.36;2237591;79;21291;-80
2022/06/07 03:13:40;;;;;;;22.87;20.43;;;;;;;15.76;84.65;98711.70;2237721;79;20904;-79
2022/06/07 03:16:40;;;;;;;24.40;21.77;;;;;;;15.77;84.09;98714.76;2237624;79;20963;-80
2022/06/07 03:19:41;;;;;;;22.05;19.95;;;;;;;15.77;84.15;98710.81;2221389;79;20985;-80
2022/06/07 03:22:42;;;;;;;21.60;19.55;;;;;;;15.81;83.77;98708.58;2210227;79;20956;-80
2022/06/07 03:25:42;;;;;;;25.90;20.85;;;;;;;15.82;83.58;98712.08;2210095;79;20965;-81
2022/06/07 03:28:42;;;;;;;33.58;20.97;;;;;;;15.84;83.82;98708.53;2210121;79;20964;-79
2022/06/07 03:31:42;;;;;;;34.20;22.50;;;;;;;15.95;84.03;98712.80;2210187;79;21020;-80
2022/06/07 03:34:43;;;;;;;35.23;22.77;;;;;;;16.06;84.29;98708.28;2209896;79;20993;-80
2022/06/07 03:37:43;;;;;;;630.73;65.20;;;;;;;16.14;84.00;98714.33;2209634;79;20920;-79
2022/06/07 03:40:44;;;;;;;27.62;21.00;;;;;;;16.21;84.25;98706.77;2208710;79;20960;-80
2022/06/07 03:43:44;;;;;;;27.32;22.25;;;;;;;16.24;83.40;98710.69;2208514;79;20941;-80
2022/06/07 03:46:44;;;;;;;31.77;22.22;;;;;;;16.25;83.52;98707.16;2209465;79;21007;-80
2022/06/07 03:49:46;;;;;;;28.00;21.23;;;;;;;16.28;83.79;98706.25;2209508;81;20976;-80
2022/06/07 03:52:45;;;;;;;447.23;46.92;;;;;;;16.38;83.52;98705.23;2209258;79;20925;-80
2022/06/07 03:55:47;;;;;;;60.85;24.30;;;;;;;16.53;83.72;98705.05;2208623;79;21027;-80
2022/06/07 03:58:46;;;;;;;38.08;27.27;;;;;;;16.77;83.94;98705.17;2207478;79;20991;-80
2022/06/07 04:01:47;;;;;;;35.68;30.35;;;;;;;17.02;83.97;98705.66;2206265;79;20984;-80
2022/06/07 04:04:47;;;;;;;35.52;30.12;;;;;;;17.28;84.08;98695.98;2207623;79;21416;-83
2022/06/07 04:11:06;;;;;;;30.70;26.27;;;;;;;17.73;83.75;98689.92;2206592;81;20947;-82
2022/06/07 04:14:07;;;;;;;33.02;29.40;;;;;;;17.97;82.93;98686.38;2207153;79;20992;-82
2022/06/07 04:17:07;;;;;;;36.80;31.80;;;;;;;18.21;82.90;98694.28;2206398;81;21019;-83
2022/06/07 04:20:08;;;;;;;37.00;30.12;;;;;;;18.43;82.70;98693.78;2224576;79;21680;-83
2022/06/07 04:23:08;;;;;;;39.70;29.12;;;;;;;18.62;82.22;98691.63;2233199;80;20983;-82
2022/06/07 04:26:08;;;;;;;34.53;28.38;;;;;;;18.74;81.81;98691.79;2233077;79;21752;-82
2022/06/07 04:29:09;;;;;;;38.83;30.02;;;;;;;18.93;81.50;98686.93;2233161;79;20998;-79
2022/06/07 04:32:11;;;;;;;42.93;32.95;;;;;;;19.03;80.81;98686.67;2233358;79;21022;-78
2022/06/07 04:35:10;;;;;;;33.45;29.87;;;;;;;19.14;80.56;98686.89;2232707;79;21507;-81
2022/06/07 04:38:10;;;;;;;46.35;31.02;;;;;;;19.28;80.10;98690.05;2233909;79;20963;-80
2022/06/07 04:41:10;;;;;;;32.03;28.62;;;;;;;19.39;79.62;98695.94;2233919;79;20931;-80
2022/06/07 04:44:11;;;;;;;66.37;29.87;;;;;;;19.51;79.31;98702.23;2234802;79;20989;-79
2022/06/07 04:47:11;;;;;;;31.68;28.27;;;;;;;19.62;78.91;98693.58;2233774;79;20931;-79
2022/06/07 04:50:12;;;;;;;40.05;29.35;;;;;;;19.78;78.42;98700.66;2232399;79;20956;-79
2022/06/07 04:53:12;;;;;;;32.50;28.27;;;;;;;19.96;77.94;98700.63;2188125;81;20954;-78
2022/06/07 04:56:13;;;;;;;29.82;26.85;;;;;;;20.01;77.32;98699.59;2230796;78;21318;-78
2022/06/07 04:59:13;;;;;;;32.38;28.98;;;;;;;20.12;77.03;98703.72;2230639;79;20963;-77
2022/06/07 05:02:13;;;;;;;57.23;27.45;;;;;;;20.15;76.59;98703.63;2230692;79;21019;-79
2022/06/07 05:05:14;;;;;;;156.87;36.35;;;;;;;20.16;76.79;98715.97;2231006;79;21011;-85
2022/06/07 05:08:14;;;;;;;35.80;27.20;;;;;;;20.15;76.23;98717.75;2232289;79;20990;-83
2022/06/07 05:11:15;;;;;;;29.42;26.42;;;;;;;20.29;76.12;98713.37;2232316;79;21026;-82
2022/06/07 05:14:15;;;;;;;29.82;26.80;;;;;;;20.52;75.85;98709.61;2232070;79;20990;-82
2022/06/07 05:17:15;;;;;;;27.98;25.08;;;;;;;20.87;75.18;98708.54;2232317;79;21045;-81
2022/06/07 05:20:16;;;;;;;28.73;26.02;;;;;;;21.14;74.01;98704.59;2233229;80;21026;-81
2022/06/07 05:23:16;;;;;;;23.07;20.85;;;;;;;21.23;73.62;98703.85;2234846;79;20975;-80
2022/06/07 05:26:16;;;;;;;22.77;20.57;;;;;;;21.36;72.57;98705.63;2234610;79;20931;-80
2022/06/07 05:29:17;;;;;;;18.90;16.93;;;;;;;21.44;71.47;98703.59;2233727;79;21011;-80
2022/06/07 05:32:17;;;;;;;20.55;18.55;;;;;;;21.52;71.27;98708.17;2232493;79;21014;-83
2022/06/07 05:35:18;;;;;;;49.67;21.33;;;;;;;21.54;70.10;98715.63;2233758;78;21046;-82
2022/06/07 05:38:18;;;;;;;17.92;16.32;;;;;;;21.54;69.70;98714.77;2233637;79;20986;-80
2022/06/07 05:41:19;;;;;;;18.00;16.37;;;;;;;21.56;69.92;98719.10;2234011;79;21456;-81
2022/06/07 05:44:19;;;;;;;17.10;15.53;;;;;;;21.57;69.27;98722.16;2233831;79;20986;-80
2022/06/07 05:47:19;;;;;;;16.85;15.25;;;;;;;21.46;68.98;98721.66;2233366;79;21288;-81
2022/06/07 05:50:20;;;;;;;17.20;15.50;;;;;;;21.57;69.01;98723.48;2233203;79;21393;-82
2022/06/07 05:53:20;;;;;;;16.77;15.38;;;;;;;21.68;68.73;98723.16;2233585;79;20920;-80
2022/06/07 05:56:21;;;;;;;13.85;12.55;;;;;;;21.73;68.32;98722.53;2233150;79;21002;-81
2022/06/07 05:59:21;;;;;;;38.78;14.45;;;;;;;21.78;67.92;98723.70;2233398;79;21422;-82
2022/06/07 06:02:21;;;;;;;13.50;12.10;;;;;;;21.89;67.51;98716.21;2233258;79;20971;-83
2022/06/07 06:05:22;;;;;;;9.90;9.10;;;;;;;21.96;67.19;98716.39;2232763;80;21030;-82
2022/06/07 06:11:41;;;;;;;9.60;8.80;;;;;;;22.30;65.45;98720.50;2232807;80;20947;-80
2022/06/07 06:14:41;;;;;;;10.98;7.28;;;;;;;22.39;64.17;98714.38;2232932;80;20947;-78
2022/06/07 06:17:42;;;;;;;8.58;7.87;;;;;;;22.48;63.85;98711.83;2231154;79;21345;-80
2022/06/07 06:20:42;;;;;;;9.03;8.33;;;;;;;22.64;64.00;98706.35;2214077;79;21031;-78
2022/06/07 06:23:43;;;;;;;8.85;7.97;;;;;;;22.80;63.77;98714.16;2203274;79;20991;-80
2022/06/07 06:26:43;;;;;;;21.60;7.65;;;;;;;22.99;62.89;98713.43;2201574;81;21655;-82
2022/06/07 06:29:43;;;;;;;8.88;6.62;;;;;;;23.18;62.35;98703.77;2204913;79;20944;-83
2022/06/07 06:32:44;;;;;;;6.80;6.20;;;;;;;23.41;61.62;98703.70;2205624;79;20953;-82
2022/06/07 06:35:44;;;;;;;7.17;6.47;;;;;;;23.64;60.42;98703.22;2205339;79;21087;-83
2022/06/07 06:38:45;;;;;;;6.50;6.00;;;;;;;23.70;60.45;98700.28;2205191;81;21027;-81
2022/06/07 06:41:47;;;;;;;92.42;12.82;;;;;;;23.91;59.90;98701.14;2205278;79;21008;-81
2022/06/07 06:44:46;;;;;;;7.03;6.42;;;;;;;24.10;58.80;98693.58;2205574;79;21023;-79
2022/06/07 06:47:46;;;;;;;6.75;6.22;;;;;;;24.33;58.17;98695.27;2205864;79;20960;-80
2022/06/07 06:50:46;;;;;;;6.22;5.70;;;;;;;24.48;57.62;98682.14;2205281;79;21779;-79
2022/06/07 06:53:47;;;;;;;6.05;5.55;;;;;;;24.74;56.99;98674.63;2202669;79;20937;-79
2022/06/07 06:56:48;;;;;;;5.95;5.37;;;;;;;24.83;55.90;98683.13;2202998;79;21070;-79
2022/06/07 06:59:48;;;;;;;6.40;5.37;;;;;;;24.77;55.47;98678.95;2203556;79;20960;-78
2022/06/07 07:02:49;;;;;;;12.73;5.65;;;;;;;24.99;55.10;98665.45;2203576;79;20987;-79
2022/06/07 07:05:49;;;;;;;6.55;5.65;;;;;;;25.18;54.73;98668.97;2204543;79;21485;-81
2022/06/07 07:08:50;;;;;;;6.45;5.95;;;;;;;25.48;53.52;98664.34;2205694;79;21039;-76
2022/06/07 07:11:50;;;;;;;15.30;6.53;;;;;;;25.65;52.49;98660.33;2204036;81;20940;-79
2022/06/07 07:14:52;;;;;;;8.75;5.50;;;;;;;25.90;52.04;98657.26;2203774;79;21372;-80
2022/06/07 07:17:52;;;;;;;34.18;6.80;;;;;;;26.02;51.61;98648.61;2204062;79;20983;-79
2022/06/07 07:20:53;;;;;;;8.80;5.55;;;;;;;26.20;50.95;98655.64;2203759;79;21434;-78
2022/06/07 07:23:53;;;;;;;31.57;6.62;;;;;;;26.36;50.27;98651.68;2205172;81;20917;-79
2022/06/07 07:26:54;;;;;;;5.42;5.03;;;;;;;26.52;49.58;98653.03;2205975;79;21027;-80
2022/06/07 07:29:54;;;;;;;4.45;4.15;;;;;;;26.68;49.07;98651.69;2205758;79;20952;-79
2022/06/07 07:32:54;;;;;;;4.65;4.25;;;;;;;26.81;47.99;98649.56;2205307;79;20984;-81
2022/06/07 07:35:55;;;;;;;4.58;4.22;;;;;;;26.76;47.85;98640.93;2206086;79;21402;-78
2022/06/07 07:38:56;;;;;;;8.18;5.00;;;;;;;26.85;47.63;98644.89;2205669;79;20995;-78
2022/06/07 07:41:56;;;;;;;7.85;5.22;;;;;;;27.06;47.34;98645.06;2205002;79;20968;-80
2022/06/07 07:44:56;;;;;;;10.32;5.72;;;;;;;27.13;47.27;98646.42;2206397;79;20999;-80
2022/06/07 07:47:57;;;;;;;13.08;5.80;;;;;;;27.24;46.84;98646.66;2205868;79;21341;-79
2022/06/07 07:50:57;;;;;;;6.10;5.50;;;;;;;27.49;46.42;98651.90;2203890;79;20928;-79
2022/06/07 07:53:57;;;;;;;7.58;6.10;;;;;;;27.65;46.23;98645.16;2205582;79;20988;-81
2022/06/07 07:56:58;;;;;;;8.20;6.17;;;;;;;27.95;47.29;98647.34;2206312;79;21000;-79
2022/06/07 07:59:58;;;;;;;48.65;9.53;;;;;;;28.25;48.05;98641.91;2207106;79;20979;-78
2022/06/07 08:02:59;;;;;;;13.08;6.55;;;;;;;28.30;48.07;98649.19;2203473;79;20980;-79
2022/06/07 08:05:59;;;;;;;35.40;8.95;;;;;;;28.34;46.33;98641.32;2202581;80;21007;-80
2022/06/07 08:09:00;;;;;;;6.78;6.10;;;;;;;28.55;47.55;98642.63;2200947;79;21581;-80
2022/06/07 08:12:05;;;;;;;159.75;15.25;;;;;;;28.76;45.52;98643.09;2201283;79;20984;-82
2022/06/07 08:15:00;;;;;;;11.20;6.80;;;;;;;28.35;43.55;98642.19;2204754;80;21598;-78
2022/06/07 08:18:04;;;;;;;17.40;6.50;;;;;;;28.26;46.04;98645.45;2200882;79;21039;-80
2022/06/07 08:21:05;;;;;;;8.75;5.60;;;;;;;28.57;44.65;98638.50;2221310;79;21450;-80
2022/06/07 08:24:04;;;;;;;24.90;7.10;;;;;;;28.92;44.80;98639.42;2231915;79;20963;-79
2022/06/07 08:27:06;;;;;;;24.92;6.95;;;;;;;29.20;44.17;98637.11;2232273;80;21113;-79
2022/06/07 08:30:06;;;;;;;15.68;5.67;;;;;;;29.32;42.97;98641.66;2232248;79;21346;-79
2022/06/07 08:39:44;;;;;;;44.27;7.90;;;;;;;29.73;40.12;98641.08;2233112;80;21030;-81
2022/06/07 08:42:47;;;;;;;19.37;4.87;;;;;;;29.69;42.21;98638.23;2232913;80;21342;-79
2022/06/07 08:45:48;;;;;;;10.43;4.40;;;;;;;29.84;40.76;98632.26;2210721;80;20948;-80
2022/06/07 08:48:48;;;;;;;13.78;5.28;;;;;;;30.01;40.04;98631.07;2232928;80;20944;-83
2022/06/07 08:51:49;;;;;;;4.95;3.98;;;;;;;30.16;41.39;98625.97;2232662;80;21007;-80
2022/06/07 08:54:49;;;;;;;37.33;5.00;;;;;;;30.22;39.09;98625.53;2233358;80;20981;-81
2022/06/07 08:57:49;;;;;;;10.00;4.17;;;;;;;30.30;37.63;98627.19;2233867;79;20951;-81
2022/06/07 09:00:50;;;;;;;6.15;3.45;;;;;;;30.34;37.71;98624.66;2233617;79;21030;-79
2022/06/07 09:03:50;;;;;;;17.07;5.03;;;;;;;30.33;36.91;98620.72;2233573;79;21370;-81
2022/06/07 09:06:51;;;;;;;10.10;3.87;;;;;;;30.37;38.17;98619.08;2234119;79;21086;-82
2022/06/07 09:13:10;;;;;;;4.58;3.52;;;;;;;30.27;38.24;98625.20;2233716;80;20975;-81
2022/06/07 09:16:10;;;;;;;3.37;3.10;;;;;;;30.01;36.76;98626.58;2232980;79;20982;-79
2022/06/07 09:19:11;;;;;;;3.05;2.95;;;;;;;30.05;36.36;98623.19;2232613;79;20977;-79
2022/06/07 09:22:12;;;;;;;2.98;2.77;;;;;;;30.15;35.01;98616.17;2230347;79;20991;-78
2022/06/07 09:25:12;;;;;;;4.37;3.60;;;;;;;30.25;33.65;98618.58;2231116;79;20986;-77
2022/06/07 09:28:12;;;;;;;4.40;2.95;;;;;;;30.26;35.02;98601.45;2232667;79;21045;-79
2022/06/07 09:31:12;;;;;;;3.22;2.90;;;;;;;30.47;34.75;98594.17;2232600;78;20958;-79
2022/06/07 09:34:13;;;;;;;4.37;2.87;;;;;;;30.59;34.65;98606.28;2234806;79;21282;-79
2022/06/07 09:37:13;;;;;;;4.00;3.70;;;;;;;30.55;33.99;98609.28;2232616;79;21484;-82
2022/06/07 09:40:14;;;;;;;5.33;3.00;;;;;;;30.37;33.48;98604.27;2234004;79;21040;-82
2022/06/07 09:43:14;;;;;;;3.30;3.00;;;;;;;30.32;34.47;98599.67;2234212;79;20935;-79
2022/06/07 09:46:15;;;;;;;3.70;3.37;;;;;;;30.69;34.31;98598.37;2230902;80;20940;-79
2022/06/07 09:49:15;;;;;;;3.08;2.70;;;;;;;30.72;33.92;98590.92;2229194;79;21252;-79
2022/06/07 09:52:17;;;;;;;3.47;3.08;;;;;;;30.84;33.70;98590.50;2230289;79;21058;-79
2022/06/07 09:55:16;;;;;;;3.80;3.50;;;;;;;30.99;33.25;98592.04;2230204;80;21017;-80
2022/06/07 09:58:16;;;;;;;3.17;2.87;;;;;;;31.18;33.25;98596.92;2233097;79;21339;-81
2022/06/07 10:01:17;;;;;;;3.10;2.90;;;;;;;31.04;30.43;98584.95;2233245;79;20924;-81
2022/06/07 10:04:17;;;;;;;5.75;2.67;;;;;;;30.75;32.23;98576.37;2233187;79;20948;-81
2022/06/07 10:07:17;;;;;;;2.70;2.50;;;;;;;30.49;30.70;98576.92;2232460;80;20998;-80
2022/06/07 10:10:18;;;;;;;2.40;2.30;;;;;;;30.54;30.54;98578.80;2232690;79;21378;-78
2022/06/07 10:13:18;;;;;;;2.58;2.30;;;;;;;30.87;31.21;98575.45;2230244;79;20986;-81
2022/06/07 10:16:19;;;;;;;2.40;2.20;;;;;;;31.11;30.33;98574.56;2232212;79;21476;-80
2022/06/07 10:19:19;;;;;;;2.10;2.00;;;;;;;31.43;29.84;98574.36;2228794;79;20986;-78
2022/06/07 10:22:19;;;;;;;1.82;1.72;;;;;;;31.91;27.96;98566.97;2206292;79;21054;-77
2022/06/07 10:25:21;;;;;;;1.70;1.60;;;;;;;32.29;26.64;98571.19;2202576;79;20988;-77
2022/06/07 10:28:20;;;;;;;1.65;1.55;;;;;;;32.34;26.90;98556.81;2203282;81;20987;-78
2022/06/07 10:31:21;;;;;;;2.10;2.00;;;;;;;32.27;26.58;98556.95;2203270;79;21485;-78
2022/06/07 10:34:23;;;;;;;4.12;2.47;;;;;;;32.09;27.46;98553.01;2193315;81;21050;-80
2022/06/07 10:37:23;;;;;;;2.10;2.00;;;;;;;31.91;28.08;98551.27;2207266;79;21397;-79
2022/06/07 10:40:24;;;;;;;3.08;2.77;;;;;;;32.11;28.13;98551.90;2207650;79;20960;-79
2022/06/07 10:43:24;;;;;;;2.90;2.70;;;;;;;31.78;29.61;98545.13;2208427;79;20957;-79
2022/06/07 10:46:25;;;;;;;3.27;3.08;;;;;;;31.61;30.33;98548.64;2206798;79;21007;-80
2022/06/07 10:49:25;;;;;;;2.92;2.70;;;;;;;30.99;30.54;98544.87;2206949;79;20952;-79
2022/06/07 10:52:27;;;;;;;3.15;2.87;;;;;;;30.43;32.08;98543.23;2206868;79;21892;-78
2022/06/07 10:55:26;;;;;;;3.67;2.90;;;;;;;30.06;32.29;98538.78;2207209;79;21007;-80
2022/06/07 10:58:26;;;;;;;3.08;2.80;;;;;;;29.75;32.42;98538.27;2206749;79;20949;-79
2022/06/07 11:01:27;;;;;;;3.37;2.80;;;;;;;29.58;33.25;98537.26;2208163;79;20948;-79
2022/06/07 11:11:05;;;;;;;3.33;2.98;;;;;;;29.88;32.86;98532.87;2205403;81;20975;-79
2022/06/07 11:14:06;;;;;;;3.40;3.08;;;;;;;29.66;32.97;98529.50;2206925;79;21043;-79
2022/06/07 11:17:07;;;;;;;2.87;2.67;;;;;;;29.82;32.86;98528.41;2206417;79;21003;-81
2022/06/07 11:20:07;;;;;;;2.92;2.72;;;;;;;30.04;31.39;98525.92;2205619;79;20976;-80
2022/06/07 11:23:07;;;;;;;3.25;3.00;;;;;;;30.31;31.33;98518.52;2205064;79;20952;-78
2022/06/07 11:26:07;;;;;;;2.60;2.40;;;;;;;30.53;31.18;98514.27;2205325;79;20951;-79
2022/06/07 11:29:08;;;;;;;2.70;2.50;;;;;;;30.49;30.06;98508.25;2204617;79;21035;-80
2022/06/07 11:32:08;;;;;;;26.73;3.75;;;;;;;30.69;30.27;98502.26;2204679;79;20920;-81
2022/06/07 11:35:11;;;;;;;2.37;2.10;;;;;;;31.10;29.87;98504.97;2205927;79;21359;-79
2022/06/07 11:38:09;;;;;;;3.75;2.17;;;;;;;31.28;28.19;98500.05;2204844;79;20968;-79
2022/06/07 11:44:28;;;;;;;2.50;2.30;;;;;;;31.59;28.12;98495.78;2205667;81;21426;-80
2022/06/07 11:47:29;;;;;;;2.20;2.10;;;;;;;31.81;28.03;98495.81;2205974;79;20999;-78
2022/06/07 11:50:29;;;;;;;3.62;1.85;;;;;;;31.93;27.66;98488.08;2206504;79;20995;-79
2022/06/07 11:53:30;;;;;;;1.90;1.80;;;;;;;32.26;27.55;98480.97;2205441;79;20992;-80
2022/06/07 11:56:30;;;;;;;4.62;2.30;;;;;;;32.45;27.03;98474.40;2206498;80;21062;-80
2022/06/07 11:59:30;;;;;;;2.45;2.25;;;;;;;32.67;27.13;98472.59;2205731;79;20937;-79
2022/06/07 12:02:31;;;;;;;1.80;1.70;;;;;;;32.92;27.07;98462.80;2205205;79;20944;-81
2022/06/07 12:05:31;;;;;;;2.30;2.10;;;;;;;33.25;25.20;98452.30;2205397;79;21063;-79
2022/06/07 12:08:32;;;;;;;2.40;2.20;;;;;;;32.86;25.74;98458.77;2205064;81;20964;-82
2022/06/07 12:11:34;;;;;;;2.40;2.20;;;;;;;32.69;26.34;98447.66;2205366;79;21779;-80
2022/06/07 12:14:33;;;;;;;3.90;2.60;;;;;;;32.75;26.91;98450.69;2205376;79;20952;-81
2022/06/07 12:17:33;;;;;;;2.15;2.05;;;;;;;32.96;26.63;98438.59;2205210;79;20987;-81
2022/06/07 12:20:33;;;;;;;2.50;2.27;;;;;;;33.22;25.79;98439.89;2204209;81;20987;-80
2022/06/07 12:23:34;;;;;;;3.05;2.00;;;;;;;33.20;26.01;98443.73;2204332;81;20980;-81
2022/06/07 12:26:34;;;;;;;2.10;2.00;;;;;;;33.31;25.79;98449.58;2204848;79;20898;-80
2022/06/07 12:29:34;;;;;;;11.22;3.60;;;;;;;33.24;26.21;98443.32;2204510;79;21356;-79
2022/06/07 12:32:35;;;;;;;2.70;2.30;;;;;;;33.34;26.31;98442.05;2204028;79;20971;-80
2022/06/07 12:35:36;;;;;;;8.95;2.45;;;;;;;33.80;25.75;98432.55;2204973;81;21071;-80
2022/06/07 12:38:36;;;;;;;4.75;2.70;;;;;;;33.71;26.56;98436.09;2205081;79;21340;-81
2022/06/07 12:41:36;;;;;;;4.92;2.60;;;;;;;33.38;26.44;98429.97;2205381;81;20940;-80
2022/06/07 12:44:37;;;;;;;5.62;2.90;;;;;;;33.35;27.13;98429.39;2206020;81;21088;-79
2022/06/07 12:47:39;;;;;;;3.15;2.50;;;;;;;33.46;27.10;98428.80;2205728;81;22123;-79
2022/06/07 12:50:37;;;;;;;383.35;44.18;;;;;;;33.93;26.79;98427.81;2205275;79;21371;-82
2022/06/07 12:53:39;;;;;;;260.80;18.07;;;;;;;34.36;26.03;98423.92;2205204;79;20988;-81
2022/06/07 12:56:39;;;;;;;3.92;2.85;;;;;;;34.86;25.29;98429.23;2205651;79;21054;-81
2022/06/07 12:59:39;;;;;;;2.33;2.22;;;;;;;34.98;25.22;98430.80;2205073;79;20999;-80
2022/06/07 13:02:39;;;;;;;3.70;2.67;;;;;;;34.89;25.22;98424.88;2205594;79;21084;-80
2022/06/07 13:05:39;;;;;;;7.00;3.40;;;;;;;34.57;25.24;98426.48;2205888;81;20968;-80
2022/06/07 13:08:42;;;;;;;;;;;;;;;34.17;25.58;98421.52;2157438;82;21571;-79
2022/06/07 13:11:42;;;;;;;2.40;2.20;;;;;;;33.97;25.88;98422.48;2153939;83;20126;-81
2022/06/07 13:14:46;;;;;;;3.37;2.42;;;;;;;33.44;26.61;98419.96;2154094;83;21019;-78
2022/06/07 13:17:46;;;;;;;2.45;2.27;;;;;;;32.82;27.51;98420.83;2155324;83;21034;-78
2022/06/07 13:20:49;;;;;;;2.70;2.47;;;;;;;32.24;27.60;98420.33;2155083;82;20940;-81
2022/06/07 13:23:49;;;;;;;2.72;2.52;;;;;;;31.86;28.05;98416.69;2178088;82;21006;-80
2022/06/07 13:26:50;;;;;;;2.40;2.20;;;;;;;31.72;28.33;98411.56;2178095;82;21281;-80
2022/06/07 13:29:50;;;;;;;16.35;3.58;;;;;;;31.58;29.00;98406.39;2179411;82;21461;-80
2022/06/07 13:32:50;;;;;;;4.97;2.98;;;;;;;31.45;29.08;98409.22;2178959;82;21421;-79
2022/06/07 13:35:55;;;;;;;2.60;2.40;;;;;;;31.50;29.50;98392.67;2177200;82;20983;-81
2022/06/07 13:38:52;;;;;;;2.65;2.45;;;;;;;31.50;29.50;98392.67;2179357;82;21019;-80
2022/06/07 13:41:52;;;;;;;6.22;2.60;;;;;;;31.61;29.08;98394.01;2178981;82;20955;-80
2022/06/07 13:44:52;;;;;;;6.92;2.45;;;;;;;32.14;30.08;98395.55;2178725;82;20986;-81
2022/06/07 13:47:53;;;;;;;4.95;2.75;;;;;;;32.45;29.40;98393.86;2177855;82;21480;-80
2022/06/07 13:53:58;;;;;;;2.92;2.52;;;;;;;32.61;29.27;98386.16;2179231;82;21303;-81
2022/06/07 13:56:57;;;;;;;3.98;2.83;;;;;;;32.58;29.18;98385.07;2178817;82;21063;-81
2022/06/07 13:59:57;;;;;;;23.35;3.67;;;;;;;32.27;29.16;98382.27;2180421;82;20911;-82
2022/06/07 14:02:57;;;;;;;2.92;2.62;;;;;;;32.11;29.15;98387.20;2179214;82;20958;-83
2022/06/07 14:05:58;;;;;;;2.65;2.45;;;;;;;31.74;29.36;98379.06;2211064;80;21023;-83
2022/06/07 14:08:58;;;;;;;2.72;2.52;;;;;;;31.46;29.88;98379.92;2221246;79;20979;-82
2022/06/07 14:11:59;;;;;;;3.30;2.70;;;;;;;31.55;30.29;98384.58;2221008;80;20971;-81
2022/06/07 14:14:59;;;;;;;2.77;2.55;;;;;;;31.76;30.08;98373.05;2221323;79;21401;-81
2022/06/07 14:17:59;;;;;;;2.90;2.40;;;;;;;31.54;30.63;98377.46;2222701;79;21019;-82
2022/06/07 14:21:00;;;;;;;2.83;2.62;;;;;;;31.39;31.30;98372.45;2222704;79;20920;-81
2022/06/07 14:24:00;;;;;;;4.03;2.72;;;;;;;31.24;31.52;98374.54;2208979;79;20936;-83
2022/06/07 14:27:01;;;;;;;3.20;2.90;;;;;;;31.07;31.74;98378.52;2208859;79;20956;-83
2022/06/07 14:30:01;;;;;;;3.90;2.52;;;;;;;30.77;31.58;98361.58;2208385;79;20960;-82
2022/06/07 14:33:03;;;;;;;3.20;2.90;;;;;;;30.57;32.80;98356.84;2209356;79;21314;-83
2022/06/07 14:36:02;;;;;;;3.95;2.67;;;;;;;30.41;33.63;98359.86;2208664;81;20960;-82
2022/06/07 14:39:02;;;;;;;3.12;2.83;;;;;;;30.20;33.95;98364.16;2207904;79;20929;-80